Thayer, Missouri
Current Conditions -  °F | °C
As of 7:53 PM on Tuesday 21 Oct 2014 (Local Time) from KUNO Reporting Station
Clear Clear  
Wind Chill: 55°   Ceiling: Unl
Heat Index: 55°   Visibility: 10mi
Dew Point: 46°   Wind: 0mph
Humidity: 72%   Direction: NA
Pressure: 30.12"   Gusts: NA
Location:  36.52°N, 91.54°W
Report Text: KUNO 220053Z AUTO 00000KT 10SM CLR 13/08 A3012 RMK AO2 SLP198 T01280078
Loading
Personal Weather Stations






























Interactive Weather Map
Tropical Storm Tracking
New forecast layout! Learn more

10-Day Weather Forecast

Advertisements
Track Severe Weather on mobile